METAR Data
IDs: Format: Raw Decoded Include TAF

Data at: 0538 UTC 19 Aug 2019

PADM 190502Z AUTO 01004KT 10SM CLR 17/08 A3024 RMK AO2 SLP246 T01670078
PADM 190402Z AUTO 01009KT 10SM CLR 18/07 A3026 RMK AO2 SLP253 T01830067
PADM 190302Z AUTO 02010KT 10SM CLR 19/06 A3028 RMK AO2 SLP258 T01890056 58025
PADM 190202Z AUTO 02011KT 10SM CLR 19/04 A3029 RMK AO2 SLP262 T01890044
PADM 190102Z AUTO 02014KT 10SM CLR 19/05 A3032 RMK AO2 SLP272 T01890050
PADM 190002Z AUTO 03010G16KT 10SM CLR 19/04 A3035 RMK AO2 SLP280 T01890044 10189 20111 58019
PADM 182302Z AUTO 04013G18KT 10SM CLR 18/04 A3037 RMK AO2 SLP288 T01780044
PADM 182202Z AUTO 02015KT 10SM CLR 18/04 A3039 RMK AO2 SLP295 T01780044
PADM 182102Z AUTO 04010KT 10SM CLR 16/04 A3040 RMK AO2 SLP300 T01610044 58012
PADM 182002Z AUTO 01009KT 10SM CLR 14/05 A3042 RMK AO2 SLP307 T01390050
PADM 181902Z AUTO 02014KT 10SM CLR 12/04 A3043 RMK AO2 SLP310 T01220044
PADM 181802Z AUTO 02006KT 10SM CLR 11/04 A3045 RMK AO2 SLP317 T01110044 10111 20061 55005
PADM 181702Z AUTO VRB03KT 10SM CLR 10/03 A3046 RMK AO2 SLP318 T01000033
PADM 181602Z AUTO 00000KT 10SM CLR 07/03 A3045 RMK AO2 SLP317 T00720033
PADM 181502Z AUTO 05003KT 10SM CLR 08/03 A3046 RMK AO2 SLP319 T00830033 58009
PADM 181402Z AUTO 36004KT 10SM CLR 09/03 A3047 RMK AO2 SLP323 T00890033
PADM 181302Z AUTO 08003KT 10SM CLR 07/03 A3049 RMK AO2 SLP329 T00720033
PADM 181202Z AUTO 11004KT 10SM CLR 09/04 A3049 RMK AO2 SLP331 T00940039 10144 20072 58006
PADM 181102Z AUTO 17003KT 10SM CLR 07/04 A3050 RMK AO2 SLP333 T00720044
PADM 181002Z AUTO 16003KT 10SM CLR 09/05 A3051 RMK AO2 SLP336 T00890050
PADM 180902Z AUTO 00000KT 10SM CLR 09/06 A3051 RMK AO2 SLP337 T00890056 53003
PADM 180802Z AUTO 08003KT 10SM CLR 11/06 A3052 RMK AO2 SLP339 T01110061 401110106
PADM 180702Z AUTO 05005KT 10SM CLR 12/08 A3051 RMK AO2 SLP337 T01220078
PADM 180602Z AUTO 03004KT 10SM CLR 14/08 A3051 RMK AO2 SLP335 T01440083 10194 20144 58006
PADM 180502Z AUTO 03006KT 10SM CLR 17/08 A3051 RMK AO2 SLP335 T01720083
PADM 180402Z AUTO 03010KT 10SM CLR 18/08 A3052 RMK AO2 SLP340 T01830078
PADM 180302Z AUTO 05012KT 10SM CLR 19/08 A3052 RMK AO2 SLP338 T01890083 56016
PADM 180202Z AUTO 35011KT 10SM CLR 19/08 A3053 RMK AO2 SLP342 T01890083
PADM 180102Z AUTO 01008KT 10SM CLR 18/08 A3054 RMK AO2 SLP346 T01830083
PADM 180002Z AUTO 01009G15KT 10SM CLR 17/08 A3055 RMK AO2 SLP349 T01720083 10172 20106 58004
PADM 172302Z AUTO 04009KT 10SM CLR 16/08 A3057 RMK AO2 SLP358 T01610078
PADM 172202Z AUTO 04007KT 10SM CLR 15/07 A3058 RMK AO2 SLP360 T01500072
PADM 172102Z AUTO 05007KT 10SM CLR 14/07 A3059 RMK AO2 SLP364 T01390072 50002
PADM 172002Z AUTO 03011KT 10SM CLR 12/07 A3059 RMK AO2 SLP363 T01220067
PADM 171902Z AUTO 03005KT 10SM CLR 11/06 A3060 RMK AO2 SLP366 T01110061
PADM 171802Z AUTO 02004KT 10SM CLR 11/06 A3059 RMK AO2 SLP364 T01060061 10106 20056 50003